sensor_id;sensor_type;location;lat;lon;timestamp;temperature;humidity
14349;DHT22;7258;50.376;8.742;2024-03-08T00:00:53;2.00;99.90
14349;DHT22;7258;50.376;8.742;2024-03-08T00:02:58;1.90;99.90
14349;DHT22;7258;50.376;8.742;2024-03-08T00:05:03;1.80;99.90
14349;DHT22;7258;50.376;8.742;2024-03-08T00:07:05;1.80;99.90
14349;DHT22;7258;50.376;8.742;2024-03-08T00:09:08;1.70;99.90
14349;DHT22;7258;50.376;8.742;2024-03-08T00:11:12;1.60;99.90
14349;DHT22;7258;50.376;8.742;2024-03-08T00:13:15;1.50;99.90
14349;DHT22;7258;50.376;8.742;2024-03-08T00:15:18;1.40;99.90
14349;DHT22;7258;50.376;8.742;2024-03-08T00:17:21;1.40;99.90
14349;DHT22;7258;50.376;8.742;2024-03-08T00:19:26;1.30;99.90
14349;DHT22;7258;50.376;8.742;2024-03-08T00:21:29;1.30;99.90
14349;DHT22;7258;50.376;8.742;2024-03-08T00:23:33;1.20;99.90
14349;DHT22;7258;50.376;8.742;2024-03-08T00:25:36;1.20;99.90
14349;DHT22;7258;50.376;8.742;2024-03-08T00:27:39;1.10;99.90
14349;DHT22;7258;50.376;8.742;2024-03-08T00:29:42;1.10;99.90
14349;DHT22;7258;50.376;8.742;2024-03-08T00:31:45;1.10;99.90
14349;DHT22;7258;50.376;8.742;2024-03-08T00:33:48;1.10;99.90
14349;DHT22;7258;50.376;8.742;2024-03-08T00:35:51;1.10;99.90
14349;DHT22;7258;50.376;8.742;2024-03-08T00:37:54;1.10;99.90
14349;DHT22;7258;50.376;8.742;2024-03-08T00:39:58;1.10;99.90
14349;DHT22;7258;50.376;8.742;2024-03-08T00:42:01;1.10;99.90
14349;DHT22;7258;50.376;8.742;2024-03-08T00:44:05;1.10;99.90
14349;DHT22;7258;50.376;8.742;2024-03-08T00:46:07;1.10;99.90
14349;DHT22;7258;50.376;8.742;2024-03-08T00:48:10;1.10;99.90
14349;DHT22;7258;50.376;8.742;2024-03-08T00:50:13;1.00;99.90
14349;DHT22;7258;50.376;8.742;2024-03-08T00:52:17;1.00;99.90
14349;DHT22;7258;50.376;8.742;2024-03-08T00:54:20;1.00;99.90
14349;DHT22;7258;50.376;8.742;2024-03-08T00:56:23;1.00;99.90
14349;DHT22;7258;50.376;8.742;2024-03-08T00:58:26;0.90;99.90
14349;DHT22;7258;50.376;8.742;2024-03-08T01:00:30;0.90;99.90
14349;DHT22;7258;50.376;8.742;2024-03-08T01:02:32;0.90;99.90
14349;DHT22;7258;50.376;8.742;2024-03-08T01:04:37;0.80;99.90
14349;DHT22;7258;50.376;8.742;2024-03-08T01:06:40;0.80;99.90
14349;DHT22;7258;50.376;8.742;2024-03-08T01:08:48;0.70;99.90
14349;DHT22;7258;50.376;8.742;2024-03-08T01:10:53;0.70;99.90
14349;DHT22;7258;50.376;8.742;2024-03-08T01:12:55;0.70;99.90
14349;DHT22;7258;50.376;8.742;2024-03-08T01:14:58;0.60;99.90
14349;DHT22;7258;50.376;8.742;2024-03-08T01:17:00;0.60;99.90
14349;DHT22;7258;50.376;8.742;2024-03-08T01:19:03;0.50;99.90
14349;DHT22;7258;50.376;8.742;2024-03-08T01:21:07;0.50;99.90
14349;DHT22;7258;50.376;8.742;2024-03-08T01:23:10;0.50;99.90
14349;DHT22;7258;50.376;8.742;2024-03-08T01:25:13;0.50;99.90
14349;DHT22;7258;50.376;8.742;2024-03-08T01:27:16;0.40;99.90
14349;DHT22;7258;50.376;8.742;2024-03-08T01:29:18;0.40;99.90
14349;DHT22;7258;50.376;8.742;2024-03-08T01:31:21;0.40;99.90
14349;DHT22;7258;50.376;8.742;2024-03-08T01:33:24;0.40;99.90
14349;DHT22;7258;50.376;8.742;2024-03-08T01:35:27;0.30;99.90
14349;DHT22;7258;50.376;8.742;2024-03-08T01:37:30;0.30;99.90
14349;DHT22;7258;50.376;8.742;2024-03-08T01:39:33;0.20;99.90
14349;DHT22;7258;50.376;8.742;2024-03-08T01:41:37;0.20;99.90
14349;DHT22;7258;50.376;8.742;2024-03-08T01:43:41;0.20;99.90
14349;DHT22;7258;50.376;8.742;2024-03-08T01:45:44;0.10;99.90
14349;DHT22;7258;50.376;8.742;2024-03-08T01:47:47;0.10;99.90
14349;DHT22;7258;50.376;8.742;2024-03-08T01:49:50;0.10;99.90
14349;DHT22;7258;50.376;8.742;2024-03-08T01:51:54;0.10;99.90
14349;DHT22;7258;50.376;8.742;2024-03-08T01:54:01;0.10;99.90
14349;DHT22;7258;50.376;8.742;2024-03-08T01:56:06;0.00;99.90
14349;DHT22;7258;50.376;8.742;2024-03-08T01:58:12;0.00;99.90
14349;DHT22;7258;50.376;8.742;2024-03-08T02:00:17;0.00;99.90
14349;DHT22;7258;50.376;8.742;2024-03-08T02:02:20;0.00;99.90
14349;DHT22;7258;50.376;8.742;2024-03-08T02:04:24;0.00;99.90
14349;DHT22;7258;50.376;8.742;2024-03-08T02:06:27;0.00;99.90
14349;DHT22;7258;50.376;8.742;2024-03-08T02:08:30;0.00;99.90
14349;DHT22;7258;50.376;8.742;2024-03-08T02:10:33;0.00;99.90
14349;DHT22;7258;50.376;8.742;2024-03-08T02:12:36;0.00;99.90
14349;DHT22;7258;50.376;8.742;2024-03-08T02:14:41;0.00;99.90
14349;DHT22;7258;50.376;8.742;2024-03-08T02:16:45;-0.10;99.90
14349;DHT22;7258;50.376;8.742;2024-03-08T02:18:48;-0.10;99.90
14349;DHT22;7258;50.376;8.742;2024-03-08T02:20:53;-0.10;99.90
14349;DHT22;7258;50.376;8.742;2024-03-08T02:22:55;-0.10;99.90
14349;DHT22;7258;50.376;8.742;2024-03-08T02:24:58;-0.20;99.90
14349;DHT22;7258;50.376;8.742;2024-03-08T02:27:03;-0.20;99.90
14349;DHT22;7258;50.376;8.742;2024-03-08T02:29:06;-0.20;99.90
14349;DHT22;7258;50.376;8.742;2024-03-08T02:31:10;-0.20;99.90
14349;DHT22;7258;50.376;8.742;2024-03-08T02:33:14;-0.30;99.90
14349;DHT22;7258;50.376;8.742;2024-03-08T02:35:19;-0.30;99.90
14349;DHT22;7258;50.376;8.742;2024-03-08T02:37:23;-0.30;99.90
14349;DHT22;7258;50.376;8.742;2024-03-08T02:39:26;-0.30;99.90
14349;DHT22;7258;50.376;8.742;2024-03-08T02:41:29;-0.30;99.90
14349;DHT22;7258;50.376;8.742;2024-03-08T02:43:32;-0.30;99.90
14349;DHT22;7258;50.376;8.742;2024-03-08T02:45:35;-0.30;99.90
14349;DHT22;7258;50.376;8.742;2024-03-08T02:47:38;-0.40;99.90
14349;DHT22;7258;50.376;8.742;2024-03-08T02:49:41;-0.40;99.90
14349;DHT22;7258;50.376;8.742;2024-03-08T02:51:44;-0.50;99.90
14349;DHT22;7258;50.376;8.742;2024-03-08T02:53:49;-0.50;99.90
14349;DHT22;7258;50.376;8.742;2024-03-08T02:55:53;-0.60;99.90
14349;DHT22;7258;50.376;8.742;2024-03-08T02:57:56;-0.60;99.90
14349;DHT22;7258;50.376;8.742;2024-03-08T03:00:00;-0.60;99.90
14349;DHT22;7258;50.376;8.742;2024-03-08T03:02:04;-0.60;99.90
14349;DHT22;7258;50.376;8.742;2024-03-08T03:04:08;-0.60;99.90
14349;DHT22;7258;50.376;8.742;2024-03-08T03:06:11;-0.70;99.90
14349;DHT22;7258;50.376;8.742;2024-03-08T03:08:14;-0.70;99.90
14349;DHT22;7258;50.376;8.742;2024-03-08T03:10:20;-0.70;99.90
14349;DHT22;7258;50.376;8.742;2024-03-08T03:12:23;-0.80;99.90
14349;DHT22;7258;50.376;8.742;2024-03-08T03:14:27;-0.70;99.90
14349;DHT22;7258;50.376;8.742;2024-03-08T03:16:29;-0.80;99.90
14349;DHT22;7258;50.376;8.742;2024-03-08T03:18:32;-0.80;99.90
14349;DHT22;7258;50.376;8.742;2024-03-08T03:20:34;-0.80;99.90
14349;DHT22;7258;50.376;8.742;2024-03-08T03:22:43;-0.80;99.90
14349;DHT22;7258;50.376;8.742;2024-03-08T03:24:48;-0.80;99.90
14349;DHT22;7258;50.376;8.742;2024-03-08T03:26:54;-0.80;99.90
14349;DHT22;7258;50.376;8.742;2024-03-08T03:28:57;-0.90;99.90
14349;DHT22;7258;50.376;8.742;2024-03-08T03:31:02;-0.90;99.90
14349;DHT22;7258;50.376;8.742;2024-03-08T03:33:08;-0.90;99.90
14349;DHT22;7258;50.376;8.742;2024-03-08T03:35:12;-0.90;99.90
14349;DHT22;7258;50.376;8.742;2024-03-08T03:37:16;-0.90;99.90
14349;DHT22;7258;50.376;8.742;2024-03-08T03:39:19;-0.90;99.90
14349;DHT22;7258;50.376;8.742;2024-03-08T03:41:24;-0.90;99.90
14349;DHT22;7258;50.376;8.742;2024-03-08T03:43:28;-0.90;99.90
14349;DHT22;7258;50.376;8.742;2024-03-08T03:45:31;-0.90;99.90
14349;DHT22;7258;50.376;8.742;2024-03-08T03:47:37;-1.00;99.90
14349;DHT22;7258;50.376;8.742;2024-03-08T03:49:40;-1.00;99.90
14349;DHT22;7258;50.376;8.742;2024-03-08T03:51:44;-1.00;99.90
14349;DHT22;7258;50.376;8.742;2024-03-08T03:53:47;-1.10;99.90
14349;DHT22;7258;50.376;8.742;2024-03-08T03:55:50;-1.10;99.90
14349;DHT22;7258;50.376;8.742;2024-03-08T03:57:53;-1.10;99.90
14349;DHT22;7258;50.376;8.742;2024-03-08T03:59:57;-1.10;99.90
14349;DHT22;7258;50.376;8.742;2024-03-08T04:02:00;-1.20;99.90
14349;DHT22;7258;50.376;8.742;2024-03-08T04:04:03;-1.20;99.90
14349;DHT22;7258;50.376;8.742;2024-03-08T04:06:07;-1.30;99.90
14349;DHT22;7258;50.376;8.742;2024-03-08T04:08:10;-1.30;99.90
14349;DHT22;7258;50.376;8.742;2024-03-08T04:10:13;-1.30;99.90
14349;DHT22;7258;50.376;8.742;2024-03-08T04:12:16;-1.30;99.90
14349;DHT22;7258;50.376;8.742;2024-03-08T04:14:19;-1.30;99.90
14349;DHT22;7258;50.376;8.742;2024-03-08T04:16:24;-1.30;99.90
14349;DHT22;7258;50.376;8.742;2024-03-08T04:18:27;-1.20;99.90
14349;DHT22;7258;50.376;8.742;2024-03-08T04:20:30;-1.30;99.90
14349;DHT22;7258;50.376;8.742;2024-03-08T04:22:33;-1.20;99.90
14349;DHT22;7258;50.376;8.742;2024-03-08T04:24:36;-1.20;99.90
14349;DHT22;7258;50.376;8.742;2024-03-08T04:26:39;-1.30;99.90
14349;DHT22;7258;50.376;8.742;2024-03-08T04:28:42;-1.30;99.90
14349;DHT22;7258;50.376;8.742;2024-03-08T04:30:45;-1.30;99.90
14349;DHT22;7258;50.376;8.742;2024-03-08T04:32:50;-1.30;99.90
14349;DHT22;7258;50.376;8.742;2024-03-08T04:34:55;-1.40;99.90
14349;DHT22;7258;50.376;8.742;2024-03-08T04:36:58;-1.40;99.90
14349;DHT22;7258;50.376;8.742;2024-03-08T04:39:01;-1.40;99.90
14349;DHT22;7258;50.376;8.742;2024-03-08T04:41:04;-1.50;99.90
14349;DHT22;7258;50.376;8.742;2024-03-08T04:43:06;-1.50;99.90
14349;DHT22;7258;50.376;8.742;2024-03-08T04:45:10;-1.60;99.90
14349;DHT22;7258;50.376;8.742;2024-03-08T04:47:14;-1.60;99.90
14349;DHT22;7258;50.376;8.742;2024-03-08T04:49:19;-1.60;99.90
14349;DHT22;7258;50.376;8.742;2024-03-08T04:51:23;-1.60;99.90
14349;DHT22;7258;50.376;8.742;2024-03-08T04:53:26;-1.70;99.90
14349;DHT22;7258;50.376;8.742;2024-03-08T04:55:29;-1.70;99.90
14349;DHT22;7258;50.376;8.742;2024-03-08T04:57:32;-1.70;99.90
14349;DHT22;7258;50.376;8.742;2024-03-08T04:59:34;-1.70;99.90
14349;DHT22;7258;50.376;8.742;2024-03-08T05:01:38;-1.70;99.90
14349;DHT22;7258;50.376;8.742;2024-03-08T05:03:41;-1.70;99.90
14349;DHT22;7258;50.376;8.742;2024-03-08T05:05:44;-1.70;99.90
14349;DHT22;7258;50.376;8.742;2024-03-08T05:07:47;-1.70;99.90
14349;DHT22;7258;50.376;8.742;2024-03-08T05:09:51;-1.70;99.90
14349;DHT22;7258;50.376;8.742;2024-03-08T05:11:54;-1.70;99.90
14349;DHT22;7258;50.376;8.742;2024-03-08T05:13:58;-1.80;99.90
14349;DHT22;7258;50.376;8.742;2024-03-08T05:16:02;-1.80;99.90
14349;DHT22;7258;50.376;8.742;2024-03-08T05:18:05;-1.70;99.90
14349;DHT22;7258;50.376;8.742;2024-03-08T05:20:08;-1.80;99.90
14349;DHT22;7258;50.376;8.742;2024-03-08T05:22:15;-1.80;99.90
14349;DHT22;7258;50.376;8.742;2024-03-08T05:24:18;-1.80;99.90
14349;DHT22;7258;50.376;8.742;2024-03-08T05:26:21;-1.80;99.90
14349;DHT22;7258;50.376;8.742;2024-03-08T05:28:23;-1.90;99.90
14349;DHT22;7258;50.376;8.742;2024-03-08T05:30:26;-1.90;99.90
14349;DHT22;7258;50.376;8.742;2024-03-08T05:32:31;-1.90;99.90
14349;DHT22;7258;50.376;8.742;2024-03-08T05:34:34;-1.90;99.90
14349;DHT22;7258;50.376;8.742;2024-03-08T05:36:36;-1.90;99.90
14349;DHT22;7258;50.376;8.742;2024-03-08T05:38:41;-1.90;99.90
14349;DHT22;7258;50.376;8.742;2024-03-08T05:40:45;-1.90;99.90
14349;DHT22;7258;50.376;8.742;2024-03-08T05:42:48;-1.90;99.90
14349;DHT22;7258;50.376;8.742;2024-03-08T05:44:50;-2.00;99.90
14349;DHT22;7258;50.376;8.742;2024-03-08T05:46:53;-2.00;99.90
14349;DHT22;7258;50.376;8.742;2024-03-08T05:48:57;-2.00;99.90
14349;DHT22;7258;50.376;8.742;2024-03-08T05:51:01;-2.00;99.90
14349;DHT22;7258;50.376;8.742;2024-03-08T05:53:04;-2.00;99.90
14349;DHT22;7258;50.376;8.742;2024-03-08T05:55:10;-2.00;99.90
14349;DHT22;7258;50.376;8.742;2024-03-08T05:57:18;-2.00;99.90
14349;DHT22;7258;50.376;8.742;2024-03-08T05:59:57;-2.00;99.90
14349;DHT22;7258;50.376;8.742;2024-03-08T06:02:12;-2.00;99.90
14349;DHT22;7258;50.376;8.742;2024-03-08T06:04:27;-2.00;99.90
14349;DHT22;7258;50.376;8.742;2024-03-08T06:06:30;-2.00;99.90
14349;DHT22;7258;50.376;8.742;2024-03-08T06:08:34;-2.00;99.90
14349;DHT22;7258;50.376;8.742;2024-03-08T06:10:38;-1.90;99.90
14349;DHT22;7258;50.376;8.742;2024-03-08T06:12:41;-1.90;99.90
14349;DHT22;7258;50.376;8.742;2024-03-08T06:14:44;-1.90;99.90
14349;DHT22;7258;50.376;8.742;2024-03-08T06:16:48;-1.90;99.90
14349;DHT22;7258;50.376;8.742;2024-03-08T06:18:52;-1.90;99.90
14349;DHT22;7258;50.376;8.742;2024-03-08T06:20:57;-1.80;99.90
14349;DHT22;7258;50.376;8.742;2024-03-08T06:23:00;-1.80;99.90
14349;DHT22;7258;50.376;8.742;2024-03-08T06:25:04;-1.80;99.90
14349;DHT22;7258;50.376;8.742;2024-03-08T06:27:08;-1.80;99.90
14349;DHT22;7258;50.376;8.742;2024-03-08T06:29:11;-1.70;99.90
14349;DHT22;7258;50.376;8.742;2024-03-08T06:31:14;-1.70;99.90
14349;DHT22;7258;50.376;8.742;2024-03-08T06:33:18;-1.60;99.90
14349;DHT22;7258;50.376;8.742;2024-03-08T06:35:21;-1.60;99.90
14349;DHT22;7258;50.376;8.742;2024-03-08T06:37:24;-1.60;99.90
14349;DHT22;7258;50.376;8.742;2024-03-08T06:39:28;-1.60;99.90
14349;DHT22;7258;50.376;8.742;2024-03-08T06:41:33;-1.50;99.90
14349;DHT22;7258;50.376;8.742;2024-03-08T06:43:39;-1.50;99.90
14349;DHT22;7258;50.376;8.742;2024-03-08T06:45:43;-1.50;99.90
14349;DHT22;7258;50.376;8.742;2024-03-08T06:47:49;-1.40;99.90
14349;DHT22;7258;50.376;8.742;2024-03-08T06:49:52;-1.30;99.90
14349;DHT22;7258;50.376;8.742;2024-03-08T06:51:54;-1.30;99.90
14349;DHT22;7258;50.376;8.742;2024-03-08T06:53:58;-1.20;99.90
14349;DHT22;7258;50.376;8.742;2024-03-08T06:56:01;-1.10;99.90
14349;DHT22;7258;50.376;8.742;2024-03-08T06:58:05;-1.00;99.90
14349;DHT22;7258;50.376;8.742;2024-03-08T07:00:11;-1.00;99.90
14349;DHT22;7258;50.376;8.742;2024-03-08T07:02:20;-0.90;99.90
14349;DHT22;7258;50.376;8.742;2024-03-08T07:04:26;-0.90;99.90
14349;DHT22;7258;50.376;8.742;2024-03-08T07:06:31;-0.80;99.90
14349;DHT22;7258;50.376;8.742;2024-03-08T07:08:35;-0.80;99.90
14349;DHT22;7258;50.376;8.742;2024-03-08T07:10:39;-0.70;99.90
14349;DHT22;7258;50.376;8.742;2024-03-08T07:12:44;-0.60;99.90
14349;DHT22;7258;50.376;8.742;2024-03-08T07:14:47;-0.60;99.90
14349;DHT22;7258;50.376;8.742;2024-03-08T07:16:51;-0.50;99.90
14349;DHT22;7258;50.376;8.742;2024-03-08T07:18:54;-0.40;99.90
14349;DHT22;7258;50.376;8.742;2024-03-08T07:20:57;-0.30;99.90
14349;DHT22;7258;50.376;8.742;2024-03-08T07:23:00;-0.20;99.90
14349;DHT22;7258;50.376;8.742;2024-03-08T07:25:02;-0.10;99.90
14349;DHT22;7258;50.376;8.742;2024-03-08T07:27:21;0.00;99.90
14349;DHT22;7258;50.376;8.742;2024-03-08T07:29:24;0.10;99.90
14349;DHT22;7258;50.376;8.742;2024-03-08T07:31:27;0.20;99.90
14349;DHT22;7258;50.376;8.742;2024-03-08T07:33:45;0.20;99.90
14349;DHT22;7258;50.376;8.742;2024-03-08T07:35:48;0.40;99.90
14349;DHT22;7258;50.376;8.742;2024-03-08T07:37:52;0.40;99.90
14349;DHT22;7258;50.376;8.742;2024-03-08T07:39:56;0.50;99.90
14349;DHT22;7258;50.376;8.742;2024-03-08T07:41:59;0.70;99.90
14349;DHT22;7258;50.376;8.742;2024-03-08T07:44:02;0.80;99.90
14349;DHT22;7258;50.376;8.742;2024-03-08T07:46:06;0.90;99.90
14349;DHT22;7258;50.376;8.742;2024-03-08T07:48:12;1.10;99.90
14349;DHT22;7258;50.376;8.742;2024-03-08T07:50:17;1.30;99.90
14349;DHT22;7258;50.376;8.742;2024-03-08T07:52:22;1.50;99.90
14349;DHT22;7258;50.376;8.742;2024-03-08T07:54:25;1.70;99.90
14349;DHT22;7258;50.376;8.742;2024-03-08T07:56:28;1.90;99.90
14349;DHT22;7258;50.376;8.742;2024-03-08T07:58:31;2.00;99.90
14349;DHT22;7258;50.376;8.742;2024-03-08T08:00:36;2.20;99.90
14349;DHT22;7258;50.376;8.742;2024-03-08T08:02:39;2.30;99.90
14349;DHT22;7258;50.376;8.742;2024-03-08T08:04:43;2.50;99.90
14349;DHT22;7258;50.376;8.742;2024-03-08T08:06:49;2.70;99.90
14349;DHT22;7258;50.376;8.742;2024-03-08T08:08:53;2.80;99.90
14349;DHT22;7258;50.376;8.742;2024-03-08T08:10:57;3.00;99.90
14349;DHT22;7258;50.376;8.742;2024-03-08T08:13:00;3.20;99.90
14349;DHT22;7258;50.376;8.742;2024-03-08T08:15:10;3.30;99.90
14349;DHT22;7258;50.376;8.742;2024-03-08T08:17:13;3.40;99.90
14349;DHT22;7258;50.376;8.742;2024-03-08T08:19:16;3.60;99.90
14349;DHT22;7258;50.376;8.742;2024-03-08T08:21:19;3.70;99.90
14349;DHT22;7258;50.376;8.742;2024-03-08T08:23:25;3.90;99.90
14349;DHT22;7258;50.376;8.742;2024-03-08T08:25:28;4.10;99.90
14349;DHT22;7258;50.376;8.742;2024-03-08T08:27:31;4.20;99.90
14349;DHT22;7258;50.376;8.742;2024-03-08T08:29:33;4.30;99.90
14349;DHT22;7258;50.376;8.742;2024-03-08T08:31:37;4.50;99.90
14349;DHT22;7258;50.376;8.742;2024-03-08T08:33:40;4.60;99.90
14349;DHT22;7258;50.376;8.742;2024-03-08T08:35:43;4.70;99.90
14349;DHT22;7258;50.376;8.742;2024-03-08T08:37:46;4.80;99.90
14349;DHT22;7258;50.376;8.742;2024-03-08T08:39:51;4.90;99.90
14349;DHT22;7258;50.376;8.742;2024-03-08T08:41:54;5.00;99.90
14349;DHT22;7258;50.376;8.742;2024-03-08T08:43:57;5.00;99.90
14349;DHT22;7258;50.376;8.742;2024-03-08T08:46:17;5.10;99.90
14349;DHT22;7258;50.376;8.742;2024-03-08T08:48:21;5.20;99.90
14349;DHT22;7258;50.376;8.742;2024-03-08T08:50:26;5.30;99.90
14349;DHT22;7258;50.376;8.742;2024-03-08T08:52:29;5.40;99.90
14349;DHT22;7258;50.376;8.742;2024-03-08T08:54:33;5.50;99.90
14349;DHT22;7258;50.376;8.742;2024-03-08T08:56:38;5.60;99.90
14349;DHT22;7258;50.376;8.742;2024-03-08T08:58:41;5.60;99.90
14349;DHT22;7258;50.376;8.742;2024-03-08T09:00:44;5.70;99.90
14349;DHT22;7258;50.376;8.742;2024-03-08T09:02:46;5.80;99.90
14349;DHT22;7258;50.376;8.742;2024-03-08T09:04:49;5.90;99.90
14349;DHT22;7258;50.376;8.742;2024-03-08T09:06:52;5.90;99.90
14349;DHT22;7258;50.376;8.742;2024-03-08T09:08:55;5.90;99.90
14349;DHT22;7258;50.376;8.742;2024-03-08T09:10:59;5.90;99.90
14349;DHT22;7258;50.376;8.742;2024-03-08T09:13:04;6.00;99.90
14349;DHT22;7258;50.376;8.742;2024-03-08T09:15:10;6.10;99.90
14349;DHT22;7258;50.376;8.742;2024-03-08T09:17:14;6.20;99.90
14349;DHT22;7258;50.376;8.742;2024-03-08T09:19:19;6.30;99.90
14349;DHT22;7258;50.376;8.742;2024-03-08T09:21:24;6.30;99.90
14349;DHT22;7258;50.376;8.742;2024-03-08T09:23:28;6.40;99.90
14349;DHT22;7258;50.376;8.742;2024-03-08T09:25:32;6.50;99.90
14349;DHT22;7258;50.376;8.742;2024-03-08T09:27:35;6.60;99.90
14349;DHT22;7258;50.376;8.742;2024-03-08T09:29:42;6.70;99.90
14349;DHT22;7258;50.376;8.742;2024-03-08T09:31:46;6.70;99.90
14349;DHT22;7258;50.376;8.742;2024-03-08T09:33:49;6.70;99.90
14349;DHT22;7258;50.376;8.742;2024-03-08T09:35:52;6.70;99.90
14349;DHT22;7258;50.376;8.742;2024-03-08T09:37:55;6.80;99.90
14349;DHT22;7258;50.376;8.742;2024-03-08T09:39:58;6.90;99.90
14349;DHT22;7258;50.376;8.742;2024-03-08T09:42:02;7.00;99.90
14349;DHT22;7258;50.376;8.742;2024-03-08T09:44:05;7.10;99.90
14349;DHT22;7258;50.376;8.742;2024-03-08T09:46:10;7.10;99.90
14349;DHT22;7258;50.376;8.742;2024-03-08T09:48:14;7.20;99.90
14349;DHT22;7258;50.376;8.742;2024-03-08T09:50:18;7.20;99.90
14349;DHT22;7258;50.376;8.742;2024-03-08T09:52:21;7.30;99.90
14349;DHT22;7258;50.376;8.742;2024-03-08T09:54:25;7.30;99.90
14349;DHT22;7258;50.376;8.742;2024-03-08T09:56:28;7.40;99.90
14349;DHT22;7258;50.376;8.742;2024-03-08T09:58:31;7.50;99.90
14349;DHT22;7258;50.376;8.742;2024-03-08T10:00:56;7.60;99.90
14349;DHT22;7258;50.376;8.742;2024-03-08T10:03:02;7.70;99.90
14349;DHT22;7258;50.376;8.742;2024-03-08T10:05:07;7.80;99.90
14349;DHT22;7258;50.376;8.742;2024-03-08T10:07:12;7.90;99.90
14349;DHT22;7258;50.376;8.742;2024-03-08T10:09:14;8.00;99.90
14349;DHT22;7258;50.376;8.742;2024-03-08T10:11:18;8.10;99.90
14349;DHT22;7258;50.376;8.742;2024-03-08T10:13:22;8.10;99.90
14349;DHT22;7258;50.376;8.742;2024-03-08T10:15:26;8.10;99.90
14349;DHT22;7258;50.376;8.742;2024-03-08T10:17:30;8.20;99.90
14349;DHT22;7258;50.376;8.742;2024-03-08T10:19:35;8.30;99.90
14349;DHT22;7258;50.376;8.742;2024-03-08T10:21:48;8.30;99.90
14349;DHT22;7258;50.376;8.742;2024-03-08T10:23:51;8.50;99.90
14349;DHT22;7258;50.376;8.742;2024-03-08T10:25:53;8.60;99.90
14349;DHT22;7258;50.376;8.742;2024-03-08T10:27:59;8.50;99.90
14349;DHT22;7258;50.376;8.742;2024-03-08T10:30:05;8.40;99.90
14349;DHT22;7258;50.376;8.742;2024-03-08T10:32:10;8.40;99.90
14349;DHT22;7258;50.376;8.742;2024-03-08T10:34:13;8.30;99.90
14349;DHT22;7258;50.376;8.742;2024-03-08T10:36:18;8.30;99.90
14349;DHT22;7258;50.376;8.742;2024-03-08T10:38:23;8.30;99.90
14349;DHT22;7258;50.376;8.742;2024-03-08T10:40:27;8.30;99.90
14349;DHT22;7258;50.376;8.742;2024-03-08T10:42:32;8.50;99.90
14349;DHT22;7258;50.376;8.742;2024-03-08T10:44:48;8.70;99.90
14349;DHT22;7258;50.376;8.742;2024-03-08T10:47:00;8.90;99.90
14349;DHT22;7258;50.376;8.742;2024-03-08T10:49:10;9.00;99.90
14349;DHT22;7258;50.376;8.742;2024-03-08T10:51:14;9.00;99.90
14349;DHT22;7258;50.376;8.742;2024-03-08T10:53:19;9.00;99.90
14349;DHT22;7258;50.376;8.742;2024-03-08T10:55:23;9.10;99.90
14349;DHT22;7258;50.376;8.742;2024-03-08T10:57:28;9.10;99.90
14349;DHT22;7258;50.376;8.742;2024-03-08T10:59:33;9.10;99.90
14349;DHT22;7258;50.376;8.742;2024-03-08T11:01:37;9.10;99.90
14349;DHT22;7258;50.376;8.742;2024-03-08T11:03:47;9.10;99.90
14349;DHT22;7258;50.376;8.742;2024-03-08T11:05:54;9.20;99.90
14349;DHT22;7258;50.376;8.742;2024-03-08T11:07:57;9.30;99.90
14349;DHT22;7258;50.376;8.742;2024-03-08T11:10:02;9.30;99.90
14349;DHT22;7258;50.376;8.742;2024-03-08T11:12:23;9.30;99.90
14349;DHT22;7258;50.376;8.742;2024-03-08T11:14:43;9.50;99.90
14349;DHT22;7258;50.376;8.742;2024-03-08T11:16:47;9.50;99.90
14349;DHT22;7258;50.376;8.742;2024-03-08T11:18:50;9.50;99.90
14349;DHT22;7258;50.376;8.742;2024-03-08T11:20:54;9.50;99.90
14349;DHT22;7258;50.376;8.742;2024-03-08T11:23:01;9.50;99.90
14349;DHT22;7258;50.376;8.742;2024-03-08T11:25:30;9.70;99.90
14349;DHT22;7258;50.376;8.742;2024-03-08T11:27:35;9.80;99.90
14349;DHT22;7258;50.376;8.742;2024-03-08T11:29:38;9.90;99.90
14349;DHT22;7258;50.376;8.742;2024-03-08T11:31:44;9.90;99.90
14349;DHT22;7258;50.376;8.742;2024-03-08T11:33:49;9.90;99.90
14349;DHT22;7258;50.376;8.742;2024-03-08T11:36:02;9.90;99.90
14349;DHT22;7258;50.376;8.742;2024-03-08T11:38:10;9.90;99.90
14349;DHT22;7258;50.376;8.742;2024-03-08T11:40:14;10.00;99.90
14349;DHT22;7258;50.376;8.742;2024-03-08T11:42:18;10.00;99.90
14349;DHT22;7258;50.376;8.742;2024-03-08T11:44:26;10.00;99.90
14349;DHT22;7258;50.376;8.742;2024-03-08T11:46:30;10.10;99.90
14349;DHT22;7258;50.376;8.742;2024-03-08T11:48:32;10.10;99.90
14349;DHT22;7258;50.376;8.742;2024-03-08T11:50:34;10.10;99.90
14349;DHT22;7258;50.376;8.742;2024-03-08T11:52:37;10.10;99.90
14349;DHT22;7258;50.376;8.742;2024-03-08T11:54:40;10.10;99.90
14349;DHT22;7258;50.376;8.742;2024-03-08T11:56:45;10.20;99.90
14349;DHT22;7258;50.376;8.742;2024-03-08T11:58:53;10.30;99.90
14349;DHT22;7258;50.376;8.742;2024-03-08T12:01:03;10.30;99.90
14349;DHT22;7258;50.376;8.742;2024-03-08T12:03:08;10.30;99.90
14349;DHT22;7258;50.376;8.742;2024-03-08T12:05:12;10.30;99.90
14349;DHT22;7258;50.376;8.742;2024-03-08T12:07:18;10.30;99.90
14349;DHT22;7258;50.376;8.742;2024-03-08T12:09:20;10.30;99.90
14349;DHT22;7258;50.376;8.742;2024-03-08T12:11:24;10.30;99.90
14349;DHT22;7258;50.376;8.742;2024-03-08T12:13:33;10.20;99.90
14349;DHT22;7258;50.376;8.742;2024-03-08T12:15:37;10.20;99.90
14349;DHT22;7258;50.376;8.742;2024-03-08T12:17:40;10.20;99.90
14349;DHT22;7258;50.376;8.742;2024-03-08T12:19:46;10.20;99.90
14349;DHT22;7258;50.376;8.742;2024-03-08T12:21:49;10.20;99.90
14349;DHT22;7258;50.376;8.742;2024-03-08T12:24:03;10.10;99.90
14349;DHT22;7258;50.376;8.742;2024-03-08T12:26:10;10.20;99.90
14349;DHT22;7258;50.376;8.742;2024-03-08T12:28:15;10.20;99.90
14349;DHT22;7258;50.376;8.742;2024-03-08T12:30:23;10.20;99.90
14349;DHT22;7258;50.376;8.742;2024-03-08T12:32:28;10.20;99.90
14349;DHT22;7258;50.376;8.742;2024-03-08T12:34:31;10.30;99.90
14349;DHT22;7258;50.376;8.742;2024-03-08T12:36:34;10.20;99.90
14349;DHT22;7258;50.376;8.742;2024-03-08T12:38:37;10.30;99.90
14349;DHT22;7258;50.376;8.742;2024-03-08T12:40:40;10.40;99.90
14349;DHT22;7258;50.376;8.742;2024-03-08T12:42:44;10.40;99.90
14349;DHT22;7258;50.376;8.742;2024-03-08T12:44:49;10.40;99.90
14349;DHT22;7258;50.376;8.742;2024-03-08T12:46:53;10.40;99.90
14349;DHT22;7258;50.376;8.742;2024-03-08T12:48:56;10.40;99.90
14349;DHT22;7258;50.376;8.742;2024-03-08T12:50:59;10.40;99.90
14349;DHT22;7258;50.376;8.742;2024-03-08T12:53:03;10.40;99.90
14349;DHT22;7258;50.376;8.742;2024-03-08T12:55:09;10.40;99.90
14349;DHT22;7258;50.376;8.742;2024-03-08T12:57:12;10.40;99.90
14349;DHT22;7258;50.376;8.742;2024-03-08T12:59:15;10.40;99.90
14349;DHT22;7258;50.376;8.742;2024-03-08T13:01:18;10.40;99.90
14349;DHT22;7258;50.376;8.742;2024-03-08T13:03:22;10.40;99.90
14349;DHT22;7258;50.376;8.742;2024-03-08T13:05:25;10.50;99.90
14349;DHT22;7258;50.376;8.742;2024-03-08T13:07:29;10.50;99.90
14349;DHT22;7258;50.376;8.742;2024-03-08T13:09:33;10.50;99.90
14349;DHT22;7258;50.376;8.742;2024-03-08T13:11:39;10.40;99.90
14349;DHT22;7258;50.376;8.742;2024-03-08T13:13:42;10.40;99.90
14349;DHT22;7258;50.376;8.742;2024-03-08T13:15:44;10.50;99.90
14349;DHT22;7258;50.376;8.742;2024-03-08T13:17:47;10.60;99.90
14349;DHT22;7258;50.376;8.742;2024-03-08T13:19:52;10.50;99.90
14349;DHT22;7258;50.376;8.742;2024-03-08T13:21:59;10.50;99.90
14349;DHT22;7258;50.376;8.742;2024-03-08T13:24:02;10.40;99.90